Map

Track Data

SID SEASON NUMBER BASIN SUBBASIN NAME ISO_TIME NATURE LAT LON WMO_WIND WMO_PRES WMO_AGENCY TRACK_TYPE DIST2LAND LANDFALL IFLAG USA_AGENCY USA_ATCF_ID USA_LAT USA_LON USA_RECORD USA_STATUS USA_WIND USA_PRES USA_SSHS USA_R34_NE USA_R34_SE USA_R34_SW USA_R34_NW USA_R50_NE USA_R50_SE USA_R50_SW USA_R50_NW USA_R64_NE USA_R64_SE USA_R64_SW USA_R64_NW USA_POCI USA_ROCI USA_RMW USA_EYE TOKYO_LAT TOKYO_LON TOKYO_GRADE TOKYO_WIND TOKYO_PRES TOKYO_R50_DIR TOKYO_R50_LONG TOKYO_R50_SHORT TOKYO_R30_DIR TOKYO_R30_LONG TOKYO_R30_SHORT TOKYO_LAND CMA_LAT CMA_LON CMA_CAT CMA_WIND CMA_PRES HKO_LAT HKO_LON HKO_CAT HKO_WIND HKO_PRES NEWDELHI_LAT NEWDELHI_LON NEWDELHI_GRADE NEWDELHI_WIND NEWDELHI_PRES NEWDELHI_CI NEWDELHI_DP NEWDELHI_POCI REUNION_LAT REUNION_LON REUNION_TYPE REUNION_WIND REUNION_PRES REUNION_TNUM REUNION_CI REUNION_RMW REUNION_R34_NE REUNION_R34_SE REUNION_R34_SW REUNION_R34_NW REUNION_R50_NE REUNION_R50_SE REUNION_R50_SW REUNION_R50_NW REUNION_R64_NE REUNION_R64_SE REUNION_R64_SW REUNION_R64_NW BOM_LAT BOM_LON BOM_TYPE BOM_WIND BOM_PRES BOM_TNUM BOM_CI BOM_RMW BOM_R34_NE BOM_R34_SE BOM_R34_SW BOM_R34_NW BOM_R50_NE BOM_R50_SE BOM_R50_SW BOM_R50_NW BOM_R64_NE BOM_R64_SE BOM_R64_SW BOM_R64_NW BOM_ROCI BOM_POCI BOM_EYE BOM_POS_METHOD BOM_PRES_METHOD NADI_LAT NADI_LON NADI_CAT NADI_WIND NADI_PRES WELLINGTON_LAT WELLINGTON_LON WELLINGTON_WIND WELLINGTON_PRES DS824_LAT DS824_LON DS824_STAGE DS824_WIND DS824_PRES TD9636_LAT TD9636_LON TD9636_STAGE TD9636_WIND TD9636_PRES TD9635_LAT TD9635_LON TD9635_WIND TD9635_PRES TD9635_ROCI NEUMANN_LAT NEUMANN_LON NEUMANN_CLASS NEUMANN_WIND NEUMANN_PRES MLC_LAT MLC_LON MLC_CLASS MLC_WIND MLC_PRES USA_GUST BOM_GUST BOM_GUST_PER REUNION_GUST REUNION_GUST_PER USA_SEAHGT USA_SEARAD_NE USA_SEARAD_SE USA_SEARAD_SW USA_SEARAD_NW STORM_SPEED STORM_DIR
1912173S18137 1912 26 SP EA NOT_NAMED 1912-06-20 12:00:00 NR -18.2000 137.400 main 0 0 __________O___ -1 -18.2000 137.400 7 3 0
1912173S18137 1912 26 SP EA NOT_NAMED 1912-06-20 15:00:00 NR -18.0605 137.393 main 0 0 __________P___ -1 -18.0605 137.393 7 2 0
1912173S18137 1912 26 SP EA NOT_NAMED 1912-06-20 18:00:00 NR -18.0269 137.389 main 0 0 __________P___ -1 -18.0269 137.389 7 1 0
1912173S18137 1912 26 SP EA NOT_NAMED 1912-06-20 21:00:00 NR -18.2047 137.390 main 0 0 __________P___ -1 -18.2047 137.390 7 7 0
1912173S18137 1912 26 SP EA NOT_NAMED 1912-06-21 00:00:00 NR -18.7000 137.400 main 0 0 __________O___ -1 -18.7000 137.400 7 14 178
1912173S18137 1912 26 SP EA NOT_NAMED 1912-06-21 03:00:00 NR -19.5830 137.423 main 0 0 __________P___ -1 -19.5830 137.423 7 21 178
1912173S18137 1912 26 SP EA NOT_NAMED 1912-06-21 06:00:00 NR -20.7820 137.471 main 0 0 __________P___ -1 -20.7820 137.471 7 26 177
1912173S18137 1912 26 SP EA NOT_NAMED 1912-06-21 09:00:00 NR -22.1898 137.559 main 0 0 __________P___ -1 -22.1898 137.559 7 29 176
1912173S18137 1912 26 SP EA NOT_NAMED 1912-06-21 12:00:00 NR -23.7000 137.700 main 0 0 __________O___ -1 -23.7000 137.700 7 31 174
1912173S18137 1912 26 SP EA NOT_NAMED 1912-06-21 15:00:00 NR -25.2753 137.936 main 0 0 __________P___ -1 -25.2753 137.936 7 33 172
1912173S18137 1912 26 SP EA NOT_NAMED 1912-06-21 18:00:00 NR -26.9073 138.226 main 0 0 __________P___ -1 -26.9073 138.226 7 32 171
1912173S18137 1912 26 SP EA NOT_NAMED 1912-06-21 21:00:00 NR -28.4607 138.530 main 0 0 __________P___ -1 -28.4607 138.530 7 29 170
1912173S18137 1912 26 SP EA NOT_NAMED 1912-06-22 00:00:00 NR -29.8000 138.800 main 0 0 __________O___ -1 -29.8000 138.800 7 23 171
1912173S18137 1912 26 SP EA NOT_NAMED 1912-06-22 03:00:00 NR -30.7611 138.938 main 0 0 __________P___ -1 -30.7611 138.938 7 17 173
1912173S18137 1912 26 SP EA NOT_NAMED 1912-06-22 06:00:00 NR -31.5023 139.036 main 0 0 __________P___ -1 -31.5023 139.036 7 14 173
1912173S18137 1912 26 SP EA NOT_NAMED 1912-06-22 09:00:00 NR -32.1175 139.141 main 0 0 __________P___ -1 -32.1175 139.141 7 12 169
1912173S18137 1912 26 SP EA NOT_NAMED 1912-06-22 12:00:00 NR -32.7000 139.300 main 0 0 __________O___ -1 -32.7000 139.300 7 13 165
1912173S18137 1912 26 SP EA NOT_NAMED 1912-06-22 15:00:00 NR -33.4171 139.545 main 0 0 __________P___ -1 -33.4171 139.545 7 15 162
1912173S18137 1912 26 SP EA NOT_NAMED 1912-06-22 18:00:00 NR -34.1163 139.859 main 0 0 __________P___ -1 -34.1163 139.859 7 15 157
1912173S18137 1912 26 SP EA NOT_NAMED 1912-06-22 21:00:00 NR -34.7824 140.243 main 0 0 __________P___ -1 -34.7824 140.243 7 15 152
1912173S18137 1912 26 SP EA NOT_NAMED 1912-06-23 00:00:00 NR -35.4000 140.700 main 0 0 __________O___ -1 -35.4000 140.700 7 14 146
1912173S18137 1912 26 SP EA NOT_NAMED 1912-06-23 03:00:00 NR -35.9705 141.213 main 0 0 __________P___ -1 -35.9705 141.213 7 14 141
1912173S18137 1912 26 SP EA NOT_NAMED 1912-06-23 06:00:00 NR -36.4897 141.796 main 0 0 __________P___ -1 -36.4897 141.796 7 14 135
1912173S18137 1912 26 SP EA NOT_NAMED 1912-06-23 09:00:00 NR -36.9639 142.432 main 0 0 __________P___ -1 -36.9639 142.432 7 14 131
1912173S18137 1912 26 SP EA NOT_NAMED 1912-06-23 12:00:00 NR -37.4000 143.100 main 0 0 __________O___ -1 -37.4000 143.100 7 14 129
1912173S18137 1912 26 SP EA NOT_NAMED 1912-06-23 15:00:00 NR -37.8271 143.785 main 0 0 __________P___ -1 -37.8271 143.785 7 14 127
1912173S18137 1912 26 SP EA NOT_NAMED 1912-06-23 18:00:00 NR -38.2175 144.494 main 0 0 __________P___ -1 -38.2175 144.494 7 13 124
1912173S18137 1912 26 SP EA NOT_NAMED 1912-06-23 21:00:00 NR -38.5740 145.206 main 20 0 __________P___ -1 -38.5740 145.206 7 13 122
1912173S18137 1912 26 SP EA NOT_NAMED 1912-06-24 00:00:00 NR -38.9000 145.900 main 0 0 __________O___ -1 -38.9000 145.900 7 12 122
1912173S18137 1912 26 SP EA NOT_NAMED 1912-06-24 03:00:00 NR -39.2089 146.518 main 14 14 __________P___ -1 -39.2089 146.518 7 11 122
1912173S18137 1912 26 SP EA NOT_NAMED 1912-06-24 06:00:00 NR -39.4907 147.117 main 74 74 __________P___ -1 -39.4907 147.117 7 11 120
1912173S18137 1912 26 SP EA NOT_NAMED 1912-06-24 09:00:00 NR -39.7524 147.733 main 112 90 __________P___ -1 -39.7524 147.733 7 11 117
1912173S18137 1912 26 SP EA NOT_NAMED 1912-06-24 12:00:00 NR -40.0000 148.400 main 92 88 __________O___ -1 -40.0000 148.400 7 11 114
1912173S18137 1912 26 SP EA NOT_NAMED 1912-06-24 15:00:00 NR -40.1946 149.044 main 101 101 __________P___ -1 -40.1946 149.044 7 11 110
1912173S18137 1912 26 SP EA NOT_NAMED 1912-06-24 18:00:00 NR -40.3838 149.760 main 135 135 __________P___ -1 -40.3838 149.760 7 13 109
1912173S18137 1912 26 SP EA NOT_NAMED 1912-06-24 21:00:00 NR -40.6066 150.620 main 189 189 __________P___ -1 -40.6066 150.620 7 16 109
1912173S18137 1912 26 SP EA NOT_NAMED 1912-06-25 00:00:00 NR -40.9000 151.700 main 276 276 __________O___ -1 -40.9000 151.700 7 20 109
1912173S18137 1912 26 SP EA NOT_NAMED 1912-06-25 03:00:00 NR -41.2547 153.066 main 393 393 __________P___ -1 -41.2547 153.066 7 24 109
1912173S18137 1912 26 SP EA NOT_NAMED 1912-06-25 06:00:00 NR -41.6735 154.667 main 522 522 __________P___ -1 -41.6735 154.667 7 27 110
1912173S18137 1912 26 SP EA NOT_NAMED 1912-06-25 09:00:00 NR -42.1546 156.435 main 656 656 __________P___ -1 -42.1546 156.435 7 29 111
1912173S18137 1912 26 SP EA NOT_NAMED 1912-06-25 12:00:00 NR -42.7000 158.300 main 733 574 __________O___ -1 -42.7000 158.300 7 30 113
1912173S18137 1912 26 SP MM NOT_NAMED 1912-06-25 15:00:00 NR -43.3103 160.209 main 567 410 __________P___ -1 -43.3103 160.209 7 31 114
1912173S18137 1912 26 SP MM NOT_NAMED 1912-06-25 18:00:00 NR -43.9653 162.159 main 391 236 __________P___ -1 -43.9652 162.159 7 31 115
1912173S18137 1912 26 SP MM NOT_NAMED 1912-06-25 21:00:00 NR -44.6377 164.155 main 222 55 __________P___ -1 -44.6377 164.155 7 32 115
1912173S18137 1912 26 SP MM NOT_NAMED 1912-06-26 00:00:00 NR -45.3000 166.200 main 48 __________O___ -1 -45.3000 166.200 7 32 115

Digital Typhoon Data and Search

About IBTrACS Database

This database is a web-friendly format of International Best Track Archive for Climate Stewardship (IBTrACS), a global best track data archive curated by NOAA dating back to 1842.

Updated: 2021-10-08